Time;durP1;ratioP1;P1;durP2;ratioP2;P2;SDS_P1;SDS_P2;PMS_P1;PMS_P2;Temp;Humidity;BMP_temperature;BMP_pressure;BME280_temperature;BME280_humidity;BME280_pressure;Samples;Min_cycle;Max_cycle;Signal;HPM_P1;HPM_P2
2022/03/30 00:01:40;;;;;;;0.00;0.00;;;15.10;50.60;;;;;;4150082;28;20042;-67
2022/03/30 00:04:02;;;;;;;0.00;0.00;;;15.20;50.80;;;;;;4136591;28;20125;-67
2022/03/30 00:06:24;;;;;;;0.00;0.00;;;15.10;51.00;;;;;;4133389;28;20058;-68
2022/03/30 00:08:47;;;;;;;0.00;0.00;;;15.00;51.60;;;;;;4120311;28;20122;-68
2022/03/30 00:11:10;;;;;;;0.00;0.00;;;15.00;51.60;;;;;;4134612;28;20177;-66
2022/03/30 00:13:35;;;;;;;0.00;0.00;;;15.10;51.60;;;;;;4134501;28;20050;-67
2022/03/30 00:16:03;;;;;;;0.00;0.00;;;15.10;51.40;;;;;;4133645;28;20173;-67
2022/03/30 00:18:27;;;;;;;0.00;0.00;;;15.10;51.20;;;;;;4149479;28;20124;-67
2022/03/30 00:20:52;;;;;;;0.00;0.00;;;15.10;50.70;;;;;;4149738;28;20057;-67
2022/03/30 00:23:16;;;;;;;0.00;0.00;;;15.10;50.70;;;;;;4136618;28;20054;-68
2022/03/30 00:25:48;;;;;;;0.00;0.00;;;15.20;50.70;;;;;;4150482;28;20046;-68
2022/03/30 00:28:14;;;;;;;0.00;0.00;;;15.20;50.60;;;;;;4150203;28;20392;-67
2022/03/30 00:30:39;;;;;;;0.00;0.00;;;15.30;50.20;;;;;;4149504;28;20050;-68
2022/03/30 00:33:05;;;;;;;0.00;0.00;;;15.40;50.50;;;;;;4149593;28;20054;-69
2022/03/30 00:35:31;;;;;;;0.00;0.00;;;15.40;50.40;;;;;;4150461;28;20049;-67
2022/03/30 00:37:59;;;;;;;0.00;0.00;;;15.50;50.30;;;;;;4149510;28;20116;-68
2022/03/30 00:40:24;;;;;;;0.00;0.00;;;15.50;51.40;;;;;;4133760;28;20390;-69
2022/03/30 00:42:58;;;;;;;0.00;0.00;;;15.50;51.90;;;;;;4134001;28;20393;-67
2022/03/30 00:45:34;;;;;;;0.00;0.00;;;15.50;52.10;;;;;;4133978;28;20120;-67
2022/03/30 00:47:59;;;;;;;0.00;0.00;;;15.60;52.30;;;;;;4133085;28;20053;-68
2022/03/30 00:50:24;;;;;;;0.00;0.00;;;15.50;52.30;;;;;;4145762;28;20319;-67
2022/03/30 00:52:53;;;;;;;0.00;0.00;;;15.60;52.50;;;;;;4133127;28;20154;-67
2022/03/30 00:55:24;;;;;;;0.00;0.00;;;15.50;52.80;;;;;;4132283;28;20043;-68
2022/03/30 00:57:51;;;;;;;0.00;0.00;;;15.60;52.80;;;;;;4133174;28;20054;-66
2022/03/30 01:00:15;;;;;;;0.00;0.00;;;15.60;52.60;;;;;;4135417;28;20052;-68
2022/03/30 01:02:51;;;;;;;0.00;0.00;;;15.60;52.20;;;;;;4149161;28;20056;-68
2022/03/30 01:05:15;;;;;;;0.00;0.00;;;15.60;51.70;;;;;;4135648;28;20125;-68
2022/03/30 01:07:45;;;;;;;;;;;15.60;51.50;;;;;;4137040;28;20060;-68
2022/03/30 01:10:11;;;;;;;0.00;0.00;;;15.50;51.40;;;;;;4149391;28;19976;-69
2022/03/30 01:12:52;;;;;;;0.00;0.00;;;15.40;51.60;;;;;;4137313;28;20054;-68
2022/03/30 01:15:24;;;;;;;0.00;0.00;;;15.50;51.70;;;;;;4148986;28;20065;-67
2022/03/30 01:17:47;;;;;;;0.00;0.00;;;15.50;51.60;;;;;;4148982;28;20125;-66
2022/03/30 01:20:10;;;;;;;0.00;0.00;;;15.60;51.40;;;;;;4148583;28;20480;-70
2022/03/30 01:22:35;;;;;;;0.00;0.00;;;15.40;51.50;;;;;;4135253;28;20050;-66
2022/03/30 01:24:57;;;;;;;0.00;0.00;;;15.50;51.60;;;;;;4148806;28;20046;-67
2022/03/30 01:27:19;;;;;;;0.00;0.00;;;15.50;51.50;;;;;;4148910;28;20107;-68
2022/03/30 01:32:25;;;;;;;0.00;0.00;;;15.50;51.30;;;;;;4134826;28;20046;-68
2022/03/30 01:34:48;;;;;;;0.00;0.00;;;15.50;51.30;;;;;;4121682;28;20100;-66
2022/03/30 01:37:14;;;;;;;0.00;0.00;;;15.40;51.90;;;;;;4132385;28;20046;-67
2022/03/30 01:39:38;;;;;;;0.00;0.00;;;15.30;51.70;;;;;;4136249;28;20042;-66
2022/03/30 01:42:04;;;;;;;0.00;0.00;;;15.20;52.00;;;;;;4132319;28;20050;-67
2022/03/30 01:44:26;;;;;;;0.00;0.00;;;15.30;52.20;;;;;;4131956;28;20097;-67
2022/03/30 01:46:52;;;;;;;0.00;0.00;;;15.30;52.20;;;;;;4132322;28;20052;-67
2022/03/30 01:49:21;;;;;;;0.00;0.00;;;15.40;52.40;;;;;;4132514;28;20366;-65
2022/03/30 01:51:51;;;;;;;0.00;0.00;;;15.40;52.20;;;;;;4132254;28;20054;-66
2022/03/30 01:54:18;;;;;;;0.00;0.00;;;15.40;52.20;;;;;;4131934;28;20057;-68
2022/03/30 01:56:43;;;;;;;0.00;0.00;;;15.40;52.30;;;;;;4106521;28;20524;-67
2022/03/30 01:59:06;;;;;;;0.00;0.00;;;15.40;52.60;;;;;;4119128;28;20478;-68
2022/03/30 02:01:31;;;;;;;0.00;0.00;;;15.30;52.50;;;;;;4106205;28;20061;-66
2022/03/30 02:03:56;;;;;;;0.00;0.00;;;15.20;52.40;;;;;;4132020;28;20441;-67
2022/03/30 02:06:24;;;;;;;0.00;0.00;;;15.30;52.50;;;;;;4120788;28;20121;-67
2022/03/30 02:08:46;;;;;;;0.00;0.00;;;15.30;52.40;;;;;;4148112;28;20099;-67
2022/03/30 02:11:10;;;;;;;0.00;0.00;;;15.30;52.50;;;;;;4121024;28;20050;-67
2022/03/30 02:13:35;;;;;;;0.00;0.00;;;15.30;52.80;;;;;;4134229;28;20035;-67
2022/03/30 02:15:57;;;;;;;0.00;0.00;;;15.10;53.00;;;;;;4134773;28;20045;-67
2022/03/30 02:18:24;;;;;;;0.00;0.00;;;15.10;53.40;;;;;;4134140;28;20051;-66
2022/03/30 02:20:46;;;;;;;0.00;0.00;;;15.10;52.90;;;;;;4134330;28;20034;-68
2022/03/30 02:23:08;;;;;;;0.00;0.00;;;15.00;52.90;;;;;;4134352;28;20776;-67
2022/03/30 02:25:34;;;;;;;0.00;0.00;;;14.70;53.70;;;;;;4134912;28;20057;-65
2022/03/30 02:27:59;;;;;;;0.00;0.00;;;14.40;54.40;;;;;;4147803;28;20050;-67
2022/03/30 02:30:21;;;;;;;0.00;0.00;;;14.40;54.90;;;;;;4133666;28;20112;-67
2022/03/30 02:32:47;;;;;;;0.00;0.00;;;14.30;55.10;;;;;;4134157;28;20096;-67
2022/03/30 02:35:12;;;;;;;0.00;0.00;;;14.20;55.40;;;;;;4120919;28;20062;-65
2022/03/30 02:37:34;;;;;;;0.00;0.00;;;14.10;55.60;;;;;;4147730;28;20059;-68
2022/03/30 02:40:01;;;;;;;0.00;0.00;;;14.10;55.70;;;;;;4147666;28;20384;-68
2022/03/30 02:42:23;;;;;;;0.00;0.00;;;14.20;55.30;;;;;;4147156;28;20046;-66
2022/03/30 02:44:48;;;;;;;0.00;0.00;;;14.20;54.90;;;;;;4120662;28;20085;-65
2022/03/30 02:47:10;;;;;;;0.00;0.00;;;14.30;54.70;;;;;;4147480;28;20516;-67
2022/03/30 02:49:35;;;;;;;0.00;0.00;;;14.40;54.60;;;;;;4134127;28;20182;-66
2022/03/30 02:51:59;;;;;;;0.00;0.00;;;14.50;54.50;;;;;;4133899;28;20046;-68
2022/03/30 02:54:26;;;;;;;0.00;0.00;;;14.50;54.60;;;;;;4130813;28;20050;-66
2022/03/30 02:56:53;;;;;;;0.00;0.00;;;14.40;54.70;;;;;;4118162;28;20042;-66
2022/03/30 02:59:16;;;;;;;0.00;0.00;;;14.40;54.80;;;;;;4131323;28;20046;-67
2022/03/30 03:01:38;;;;;;;0.00;0.00;;;14.30;54.80;;;;;;4117987;28;20097;-67
2022/03/30 03:04:00;;;;;;;0.00;0.00;;;14.40;54.80;;;;;;4117648;28;20049;-66
2022/03/30 03:06:25;;;;;;;0.00;0.00;;;14.40;55.20;;;;;;4117296;28;20193;-66
2022/03/30 03:08:48;;;;;;;0.00;0.00;;;14.40;55.30;;;;;;4117439;28;20061;-66
2022/03/30 03:11:10;;;;;;;0.00;0.00;;;14.30;56.00;;;;;;4131056;28;20554;-65
2022/03/30 03:13:34;;;;;;;0.00;0.00;;;14.10;56.70;;;;;;4130960;28;20049;-69
2022/03/30 03:15:59;;;;;;;0.00;0.00;;;14.00;57.10;;;;;;4130850;28;20083;-66
2022/03/30 03:18:28;;;;;;;0.00;0.00;;;14.00;57.20;;;;;;4132422;28;20069;-66
2022/03/30 03:20:50;;;;;;;0.00;0.00;;;14.10;57.00;;;;;;4133678;28;20052;-67
2022/03/30 03:23:13;;;;;;;0.00;0.00;;;14.30;56.60;;;;;;4133773;28;20053;-68
2022/03/30 03:25:40;;;;;;;0.00;0.00;;;14.30;56.60;;;;;;4133318;28;20048;-66
2022/03/30 03:28:02;;;;;;;0.00;0.00;;;14.20;56.90;;;;;;4120342;28;20074;-68
2022/03/30 03:30:25;;;;;;;0.00;0.00;;;14.20;56.70;;;;;;4130532;28;20050;-67
2022/03/30 03:32:47;;;;;;;0.00;0.00;;;14.30;56.60;;;;;;4130799;28;20166;-67
2022/03/30 03:35:09;;;;;;;0.00;0.00;;;14.40;56.50;;;;;;4104188;28;20062;-66
2022/03/30 03:37:34;;;;;;;0.00;0.00;;;14.40;56.00;;;;;;4130879;28;20042;-65
2022/03/30 03:39:56;;;;;;;0.00;0.00;;;14.50;55.80;;;;;;4117393;28;20050;-67
2022/03/30 03:42:21;;;;;;;0.00;0.00;;;14.50;55.90;;;;;;4116947;28;20189;-66
2022/03/30 03:44:43;;;;;;;0.00;0.00;;;14.50;56.30;;;;;;4117331;28;20401;-68
2022/03/30 03:47:10;;;;;;;0.00;0.00;;;14.60;56.60;;;;;;4130756;28;20046;-66
2022/03/30 03:49:33;;;;;;;0.00;0.00;;;14.60;56.60;;;;;;4130713;28;20149;-66
2022/03/30 03:51:55;;;;;;;0.00;0.00;;;14.60;56.50;;;;;;4117176;28;20545;-65
2022/03/30 03:54:17;;;;;;;0.00;0.00;;;14.60;56.50;;;;;;4117044;28;20047;-65
2022/03/30 03:56:40;;;;;;;0.00;0.00;;;14.50;56.80;;;;;;4130767;28;20062;-65
2022/03/30 03:59:03;;;;;;;0.00;0.00;;;14.50;56.60;;;;;;4130748;28;20114;-68
2022/03/30 04:01:27;;;;;;;0.00;0.00;;;14.40;56.90;;;;;;4117316;28;20085;-67
2022/03/30 04:03:49;;;;;;;0.00;0.00;;;14.40;56.70;;;;;;4117913;28;20054;-66
2022/03/30 04:06:11;;;;;;;0.00;0.00;;;14.40;56.10;;;;;;4117395;28;20054;-67
2022/03/30 04:08:38;;;;;;;0.00;0.00;;;14.40;56.10;;;;;;4131188;28;20035;-65
2022/03/30 04:11:01;;;;;;;0.00;0.00;;;14.40;55.80;;;;;;4118548;28;20481;-65
2022/03/30 04:13:25;;;;;;;0.00;0.00;;;14.40;55.30;;;;;;4118025;28;20058;-67
2022/03/30 04:15:50;;;;;;;0.00;0.00;;;14.50;55.10;;;;;;4117858;28;20042;-67
2022/03/30 04:18:17;;;;;;;0.00;0.00;;;14.50;55.10;;;;;;4130873;28;20572;-66
2022/03/30 04:20:43;;;;;;;0.00;0.00;;;14.50;55.10;;;;;;4109340;28;20080;-70
2022/03/30 04:23:05;;;;;;;0.00;0.00;;;14.50;55.10;;;;;;4147394;28;20050;-67
2022/03/30 04:25:30;;;;;;;0.00;0.00;;;14.50;55.10;;;;;;4147473;28;20037;-66
2022/03/30 04:27:55;;;;;;;0.00;0.00;;;14.60;55.10;;;;;;4134133;28;20051;-69
2022/03/30 04:30:21;;;;;;;0.00;0.00;;;14.60;55.30;;;;;;4134011;28;20173;-67
2022/03/30 04:32:46;;;;;;;0.00;0.00;;;14.60;55.40;;;;;;4120935;28;20039;-67
2022/03/30 04:35:18;;;;;;;0.00;0.00;;;14.60;55.60;;;;;;4120688;28;20531;-68
2022/03/30 04:37:40;;;;;;;0.00;0.00;;;14.50;55.40;;;;;;4134214;28;20512;-67
2022/03/30 04:40:05;;;;;;;0.00;0.00;;;14.50;55.50;;;;;;4147633;28;20127;-67
2022/03/30 04:42:29;;;;;;;0.00;0.00;;;14.50;55.60;;;;;;4122960;28;20069;-68
2022/03/30 04:44:51;;;;;;;0.00;0.00;;;14.50;55.70;;;;;;4150276;28;20046;-68
2022/03/30 04:47:16;;;;;;;0.00;0.00;;;14.50;55.90;;;;;;4150099;28;20491;-68
2022/03/30 04:49:38;;;;;;;0.00;0.00;;;14.40;56.00;;;;;;4136547;28;20045;-68
2022/03/30 04:52:07;;;;;;;0.00;0.00;;;14.50;56.20;;;;;;4149984;28;20296;-66
2022/03/30 04:54:29;;;;;;;0.00;0.00;;;14.40;56.50;;;;;;4146173;28;20049;-68
2022/03/30 04:56:54;;;;;;;0.00;0.00;;;14.30;56.60;;;;;;4119899;28;20051;-67
2022/03/30 04:59:16;;;;;;;0.00;0.00;;;14.10;57.10;;;;;;4120670;28;20101;-66
2022/03/30 05:01:40;;;;;;;0.00;0.00;;;14.10;57.20;;;;;;4120479;28;20047;-67
2022/03/30 05:04:02;;;;;;;0.00;0.00;;;14.10;57.40;;;;;;4120533;28;20059;-67
2022/03/30 05:06:27;;;;;;;0.00;0.00;;;14.20;57.40;;;;;;4106820;28;20058;-68
2022/03/30 05:08:49;;;;;;;0.00;0.00;;;14.20;57.30;;;;;;4120377;28;20054;-67
2022/03/30 05:11:13;;;;;;;0.00;0.00;;;14.20;57.40;;;;;;4133586;28;20338;-68
2022/03/30 05:13:35;;;;;;;0.00;0.00;;;14.20;57.50;;;;;;4120490;28;20540;-67
2022/03/30 05:15:57;;;;;;;0.00;0.00;;;14.10;57.50;;;;;;4119831;28;20047;-69
2022/03/30 05:18:19;;;;;;;0.00;0.00;;;14.20;57.50;;;;;;4132865;28;20042;-67
2022/03/30 05:20:44;;;;;;;0.00;0.00;;;14.20;57.40;;;;;;4133630;28;20054;-66
2022/03/30 05:23:06;;;;;;;0.00;0.00;;;14.20;57.40;;;;;;4120219;28;20046;-66
2022/03/30 05:25:28;;;;;;;0.00;0.00;;;14.10;57.70;;;;;;4119834;28;20076;-67
2022/03/30 05:27:52;;;;;;;0.00;0.00;;;14.10;58.00;;;;;;4133033;28;20473;-67
2022/03/30 05:30:19;;;;;;;0.00;0.00;;;14.10;58.30;;;;;;4132815;28;20535;-67
2022/03/30 05:32:48;;;;;;;0.00;0.00;;;14.00;58.40;;;;;;4119839;28;20478;-67
2022/03/30 05:35:10;;;;;;;0.00;0.00;;;13.90;58.90;;;;;;4133174;28;20046;-66
2022/03/30 05:37:32;;;;;;;0.00;0.00;;;13.90;59.10;;;;;;4119648;28;20054;-67
2022/03/30 05:39:54;;;;;;;0.00;0.00;;;13.80;59.20;;;;;;4132378;28;20077;-66
2022/03/30 05:42:16;;;;;;;0.00;0.00;;;13.70;59.50;;;;;;4106021;28;20060;-66
2022/03/30 05:44:39;;;;;;;0.00;0.00;;;13.80;59.40;;;;;;4132691;28;20061;-68
2022/03/30 05:47:01;;;;;;;0.00;0.00;;;13.80;59.40;;;;;;4113437;28;20046;-66
2022/03/30 05:49:24;;;;;;;0.00;0.00;;;13.90;59.60;;;;;;4138326;28;20054;-66
2022/03/30 05:51:46;;;;;;;0.00;0.00;;;13.90;59.70;;;;;;4132835;28;20370;-66
2022/03/30 05:54:13;;;;;;;0.00;0.00;;;13.90;60.40;;;;;;4106141;28;20070;-66
2022/03/30 05:59:17;;;;;;;0.00;0.00;;;13.80;60.30;;;;;;4132681;28;20055;-66
2022/03/30 06:01:42;;;;;;;0.00;0.00;;;13.80;60.10;;;;;;4119618;28;20062;-66
2022/03/30 06:04:04;;;;;;;0.00;0.00;;;13.80;60.00;;;;;;4132654;28;20039;-67
2022/03/30 06:06:26;;;;;;;0.00;0.00;;;13.80;60.10;;;;;;4132133;28;20134;-65
2022/03/30 06:08:50;;;;;;;0.00;0.00;;;13.90;60.20;;;;;;4119213;28;20057;-66
2022/03/30 06:11:15;;;;;;;0.00;0.00;;;13.90;60.20;;;;;;4119175;28;20054;-65
2022/03/30 06:13:37;;;;;;;0.00;0.00;;;13.80;60.60;;;;;;4132471;28;20057;-67
2022/03/30 06:16:01;;;;;;;0.00;0.00;;;13.70;60.80;;;;;;4132406;28;20436;-66
2022/03/30 06:18:26;;;;;;;0.00;0.00;;;13.70;61.00;;;;;;4131855;28;20370;-67
2022/03/30 06:20:47;;;;;;;0.00;0.00;;;13.70;60.90;;;;;;4118746;28;20569;-68
2022/03/30 06:23:12;;;;;;;0.00;0.00;;;13.80;60.80;;;;;;4132680;28;20054;-65
2022/03/30 06:25:34;;;;;;;0.00;0.00;;;13.90;60.80;;;;;;4132617;28;20042;-65
2022/03/30 06:27:59;;;;;;;0.00;0.00;;;13.90;60.80;;;;;;4118978;28;20054;-66
2022/03/30 06:30:26;;;;;;;0.00;0.00;;;13.70;61.30;;;;;;4131801;28;20057;-67
2022/03/30 06:32:49;;;;;;;0.00;0.00;;;13.80;61.40;;;;;;4132274;28;20412;-66
2022/03/30 06:35:14;;;;;;;0.00;0.00;;;13.80;61.60;;;;;;4118706;28;20042;-69
2022/03/30 06:37:36;;;;;;;0.00;0.00;;;13.60;62.20;;;;;;4118506;28;20077;-66
2022/03/30 06:39:58;;;;;;;0.00;0.00;;;13.70;62.20;;;;;;4132124;28;20523;-65
2022/03/30 06:42:20;;;;;;;0.00;0.00;;;13.70;62.00;;;;;;4118237;28;20116;-65
2022/03/30 06:44:42;;;;;;;0.00;0.00;;;13.70;62.00;;;;;;4118813;28;20159;-64
2022/03/30 06:47:04;;;;;;;0.00;0.00;;;13.80;62.10;;;;;;4118168;28;20047;-68
2022/03/30 06:49:29;;;;;;;0.00;0.00;;;13.80;62.00;;;;;;4130690;28;20050;-66
2022/03/30 06:51:52;;;;;;;0.00;0.00;;;13.90;61.90;;;;;;4130992;28;20133;-67
2022/03/30 06:54:15;;;;;;;0.00;0.00;;;13.80;62.50;;;;;;4104641;28;20393;-69
2022/03/30 06:56:37;;;;;;;0.00;0.00;;;13.90;62.60;;;;;;4118190;28;20237;-66
2022/03/30 06:59:03;;;;;;;0.00;0.00;;;13.90;62.60;;;;;;4118407;28;20038;-67
2022/03/30 07:01:32;;;;;;;0.00;0.00;;;14.00;62.60;;;;;;4116328;28;20058;-65
2022/03/30 07:03:57;;;;;;;0.00;0.00;;;13.80;63.10;;;;;;4110412;28;20362;-67
2022/03/30 07:06:19;;;;;;;0.00;0.00;;;13.80;63.40;;;;;;4117631;28;20054;-68
2022/03/30 07:11:26;;;;;;;0.00;0.00;;;13.80;63.70;;;;;;4129353;28;20093;-67
2022/03/30 07:13:49;;;;;;;0.00;0.00;;;13.90;63.60;;;;;;4113362;28;20047;-67
2022/03/30 07:16:16;;;;;;;0.00;0.00;;;13.90;63.70;;;;;;4115236;28;20054;-65
2022/03/30 07:18:38;;;;;;;0.00;0.00;;;13.90;63.50;;;;;;4121839;28;20121;-66
2022/03/30 07:21:03;;;;;;;0.00;0.00;;;14.00;63.40;;;;;;4131759;28;20042;-69
2022/03/30 07:23:27;;;;;;;0.00;0.00;;;14.00;63.50;;;;;;4131863;28;20038;-69
2022/03/30 07:25:52;;;;;;;0.00;0.00;;;13.90;63.80;;;;;;4145940;28;20042;-65
2022/03/30 07:28:16;;;;;;;0.00;0.00;;;14.00;64.00;;;;;;4133871;28;20093;-68
2022/03/30 07:30:38;;;;;;;0.00;0.00;;;13.80;64.30;;;;;;4134338;28;20046;-68
2022/03/30 07:33:03;;;;;;;0.00;0.00;;;13.70;64.60;;;;;;4134397;28;20050;-68
2022/03/30 07:35:32;;;;;;;0.00;0.00;;;13.70;65.00;;;;;;4134133;28;20358;-68
2022/03/30 07:37:56;;;;;;;0.00;0.00;;;13.60;65.90;;;;;;4120822;28;20449;-68
2022/03/30 07:40:22;;;;;;;0.00;0.00;;;13.60;66.10;;;;;;4120487;28;20472;-68
2022/03/30 07:42:48;;;;;;;0.00;0.00;;;13.50;66.00;;;;;;4134399;28;20046;-67
2022/03/30 07:45:13;;;;;;;0.00;0.00;;;13.40;66.70;;;;;;4120674;28;20051;-67
2022/03/30 07:47:35;;;;;;;0.00;0.00;;;13.40;66.80;;;;;;4134378;28;20555;-69
2022/03/30 07:49:58;;;;;;;0.00;0.00;;;13.30;66.80;;;;;;4134232;28;20452;-66
2022/03/30 07:52:23;;;;;;;0.00;0.00;;;13.40;67.00;;;;;;4147325;28;20113;-66
2022/03/30 07:54:46;;;;;;;0.00;0.00;;;13.40;66.70;;;;;;4133946;28;20145;-69
2022/03/30 07:57:10;;;;;;;0.00;0.00;;;13.40;66.50;;;;;;4134093;28;20451;-67
2022/03/30 07:59:32;;;;;;;0.00;0.00;;;13.40;66.70;;;;;;4134279;28;20046;-67
2022/03/30 08:01:58;;;;;;;0.00;0.00;;;13.50;67.00;;;;;;4120657;28;20081;-68
2022/03/30 08:04:20;;;;;;;0.00;0.00;;;13.40;67.10;;;;;;4135918;28;20392;-66
2022/03/30 08:06:45;;;;;;;0.00;0.00;;;13.40;67.10;;;;;;4146899;28;20037;-66
2022/03/30 08:09:07;;;;;;;0.00;0.00;;;13.50;67.20;;;;;;4152938;28;20137;-67
2022/03/30 08:11:29;;;;;;;0.00;0.00;;;13.50;67.00;;;;;;4139410;28;20050;-69
2022/03/30 08:13:53;;;;;;;0.00;0.00;;;13.40;67.80;;;;;;4135397;28;20384;-67
2022/03/30 08:16:16;;;;;;;0.00;0.00;;;13.30;67.80;;;;;;4149022;28;20042;-67
2022/03/30 08:18:38;;;;;;;0.00;0.00;;;13.10;68.20;;;;;;4121166;28;20039;-69
2022/03/30 08:23:41;;;;;;;0.00;0.00;;;13.00;68.80;;;;;;4134538;28;20109;-67
2022/03/30 08:26:04;;;;;;;0.00;0.00;;;13.10;68.80;;;;;;4121019;28;20124;-67
2022/03/30 08:28:28;;;;;;;0.00;0.00;;;13.10;68.80;;;;;;4133793;28;20432;-69
2022/03/30 08:30:51;;;;;;;0.00;0.00;;;13.10;68.80;;;;;;4134391;28;20362;-67
2022/03/30 08:33:15;;;;;;;0.00;0.00;;;13.10;68.90;;;;;;4130155;28;20053;-66
2022/03/30 08:35:39;;;;;;;0.00;0.00;;;13.00;69.20;;;;;;4150440;28;20060;-66
2022/03/30 08:38:01;;;;;;;0.00;0.00;;;13.10;69.10;;;;;;4136569;28;20046;-65
2022/03/30 08:40:26;;;;;;;0.00;0.00;;;13.00;69.50;;;;;;4149823;28;20115;-66
2022/03/30 08:42:49;;;;;;;0.00;0.00;;;12.80;70.00;;;;;;4150451;28;20831;-68
2022/03/30 08:45:13;;;;;;;0.00;0.00;;;12.80;70.10;;;;;;4150401;28;20059;-66
2022/03/30 08:47:40;;;;;;;0.00;0.00;;;12.90;70.30;;;;;;4150234;28;20060;-67
2022/03/30 08:50:06;;;;;;;0.00;0.00;;;13.00;69.90;;;;;;4137183;28;20064;-68
2022/03/30 08:52:28;;;;;;;0.00;0.00;;;13.10;69.50;;;;;;4149704;28;20049;-70
2022/03/30 08:54:55;;;;;;;0.00;0.00;;;13.00;69.60;;;;;;4123180;28;20054;-67
2022/03/30 08:57:22;;;;;;;0.00;0.00;;;13.00;69.60;;;;;;4136712;28;20049;-65
2022/03/30 09:00:23;;;;;;;0.00;0.00;;;13.10;69.80;;;;;;4150049;28;20060;-65
2022/03/30 09:03:00;;;;;;;0.00;0.00;;;13.00;70.20;;;;;;4121636;28;20039;-67
2022/03/30 09:05:27;;;;;;;0.00;0.00;;;12.90;70.40;;;;;;4149827;28;20077;-70
2022/03/30 09:08:06;;;;;;;0.00;0.00;;;12.90;70.60;;;;;;4136316;28;20138;-68
2022/03/30 09:10:31;;;;;;;0.00;0.00;;;13.00;70.70;;;;;;4150793;28;20046;-67
2022/03/30 09:12:54;;;;;;;0.00;0.00;;;13.00;70.90;;;;;;4120154;28;20398;-66
2022/03/30 09:15:20;;;;;;;0.00;0.00;;;12.90;71.10;;;;;;4119003;28;20133;-68
2022/03/30 09:17:50;;;;;;;0.00;0.00;;;12.80;71.50;;;;;;4120871;28;20046;-66
2022/03/30 09:20:16;;;;;;;0.00;0.00;;;12.70;71.80;;;;;;4133057;28;20050;-68
2022/03/30 09:22:54;;;;;;;0.00;0.00;;;12.70;72.40;;;;;;4133637;28;20491;-66
2022/03/30 09:25:36;;;;;;;0.00;0.00;;;12.70;72.70;;;;;;4122589;28;20067;-66
2022/03/30 09:28:00;;;;;;;0.00;0.00;;;12.80;72.50;;;;;;4120041;28;20497;-67
2022/03/30 09:30:25;;;;;;;0.00;0.00;;;12.80;73.00;;;;;;4132769;28;20081;-66
2022/03/30 09:32:52;;;;;;;0.00;0.00;;;12.80;73.50;;;;;;4133295;28;20089;-65
2022/03/30 09:35:28;;;;;;;0.00;0.00;;;12.60;74.00;;;;;;4132966;28;20054;-67
2022/03/30 09:38:03;;;;;;;0.00;0.00;;;12.70;74.40;;;;;;4133078;28;20046;-68
2022/03/30 09:40:41;;;;;;;0.00;0.00;;;12.60;74.90;;;;;;4121971;28;20054;-66
2022/03/30 09:43:20;;;;;;;0.00;0.00;;;12.80;74.80;;;;;;4149271;28;20654;-66
2022/03/30 09:45:48;;;;;;;0.00;0.00;;;12.80;75.10;;;;;;4149201;28;20056;-67
2022/03/30 09:48:20;;;;;;;0.00;0.00;;;12.80;75.00;;;;;;4148959;28;20077;-66
2022/03/30 09:50:45;;;;;;;0.00;0.00;;;12.80;75.50;;;;;;4149145;28;20133;-68
2022/03/30 09:53:13;;;;;;;0.00;0.00;;;12.90;75.50;;;;;;4149347;28;20480;-66
2022/03/30 09:55:49;;;;;;;0.00;0.00;;;12.90;75.50;;;;;;4148685;28;20392;-66
2022/03/30 09:58:11;;;;;;;0.00;0.00;;;12.90;75.70;;;;;;4131575;28;20077;-65
2022/03/30 10:00:36;;;;;;;0.00;0.00;;;13.00;75.90;;;;;;4118759;28;20130;-68
2022/03/30 10:03:01;;;;;;;0.00;0.00;;;13.00;75.90;;;;;;4118839;28;20481;-66
2022/03/30 10:05:23;;;;;;;0.00;0.00;;;13.10;76.10;;;;;;4132764;28;20109;-68
2022/03/30 10:07:49;;;;;;;0.00;0.00;;;13.10;75.80;;;;;;4116675;28;20069;-67
2022/03/30 10:10:17;;;;;;;0.00;0.00;;;13.00;76.70;;;;;;4140772;28;20097;-67
2022/03/30 10:12:42;;;;;;;0.00;0.00;;;12.90;77.10;;;;;;4119360;28;20061;-69
2022/03/30 10:15:09;;;;;;;0.00;0.00;;;12.90;77.30;;;;;;4119331;28;20144;-65
2022/03/30 10:17:31;;;;;;;0.00;0.00;;;13.00;77.40;;;;;;4106166;28;20062;-65
2022/03/30 10:19:55;;;;;;;0.00;0.00;;;13.00;77.60;;;;;;4119218;28;20109;-66
2022/03/30 10:22:30;;;;;;;0.00;0.00;;;13.10;76.90;;;;;;4132100;28;20058;-65
2022/03/30 10:25:12;;;;;;;0.00;0.00;;;13.10;76.80;;;;;;4123091;28;20050;-66
2022/03/30 10:27:54;;;;;;;0.00;0.00;;;13.10;77.30;;;;;;4153783;28;20104;-66
2022/03/30 10:30:29;;;;;;;0.00;0.00;;;13.00;77.20;;;;;;4134799;28;20046;-67
2022/03/30 10:32:57;;;;;;;0.00;0.00;;;13.10;77.40;;;;;;4148293;28;20153;-67
2022/03/30 10:35:20;;;;;;;0.00;0.00;;;13.00;77.70;;;;;;4148634;28;20088;-66
2022/03/30 10:37:59;;;;;;;0.00;0.00;;;12.90;78.00;;;;;;4134949;28;20101;-66
2022/03/30 10:40:28;;;;;;;0.00;0.00;;;12.90;78.10;;;;;;4132342;28;20143;-67
2022/03/30 10:42:50;;;;;;;0.00;0.00;;;12.90;78.50;;;;;;4132442;28;20554;-65
2022/03/30 10:45:20;;;;;;;0.00;0.00;;;12.90;78.80;;;;;;4132281;28;20085;-67
2022/03/30 10:48:14;;;;;;;0.00;0.00;;;13.00;78.60;;;;;;4132308;28;20500;-66
2022/03/30 10:50:46;;;;;;;0.00;0.00;;;13.00;78.10;;;;;;4131984;28;20514;-67
2022/03/30 10:53:32;;;;;;;0.00;0.00;;;13.10;78.20;;;;;;4130480;28;20104;-67
2022/03/30 10:55:54;;;;;;;0.00;0.00;;;12.80;79.10;;;;;;4131957;28;20069;-67
2022/03/30 10:58:16;;;;;;;0.00;0.00;;;12.80;80.20;;;;;;4119704;28;20539;-67
2022/03/30 11:00:41;;;;;;;0.00;0.00;;;12.90;79.80;;;;;;4134882;28;20547;-66
2022/03/30 11:03:13;;;;;;;0.00;0.00;;;12.80;79.60;;;;;;4134799;28;20139;-64
2022/03/30 11:05:36;;;;;;;0.00;0.00;;;12.90;79.60;;;;;;4148319;28;20046;-66
2022/03/30 11:07:59;;;;;;;0.00;0.00;;;12.90;79.20;;;;;;4148193;28;20408;-65
2022/03/30 11:10:30;;;;;;;0.00;0.00;;;12.90;79.30;;;;;;4147888;28;20133;-67
2022/03/30 11:13:02;;;;;;;0.00;0.00;;;12.90;79.30;;;;;;4134681;28;20049;-67
2022/03/30 11:15:26;;;;;;;0.00;0.00;;;12.90;79.40;;;;;;4134871;28;20050;-67
2022/03/30 11:17:55;;;;;;;0.00;0.00;;;12.90;79.00;;;;;;4147754;28;20092;-65
2022/03/30 11:20:19;;;;;;;0.00;0.00;;;13.00;78.60;;;;;;4134837;28;20539;-66
2022/03/30 11:22:45;;;;;;;0.00;0.00;;;13.00;78.60;;;;;;4148092;28;20045;-64
2022/03/30 11:25:22;;;;;;;0.00;0.00;;;13.00;78.60;;;;;;4147984;28;20487;-68
2022/03/30 11:28:08;;;;;;;0.00;0.00;;;13.10;79.00;;;;;;4134223;28;20073;-67
2022/03/30 11:30:43;;;;;;;0.00;0.00;;;13.10;78.90;;;;;;4147763;28;20069;-67
2022/03/30 11:33:17;;;;;;;0.00;0.00;;;13.00;80.20;;;;;;4121989;28;20061;-65
2022/03/30 11:35:43;;;;;;;0.00;0.00;;;13.00;80.60;;;;;;4147588;28;20046;-67
2022/03/30 11:38:12;;;;;;;0.00;0.00;;;13.10;81.10;;;;;;4134188;28;20129;-67
2022/03/30 11:40:45;;;;;;;0.00;0.00;;;13.20;81.30;;;;;;4151126;28;20100;-66
2022/03/30 11:43:10;;;;;;;0.00;0.00;;;13.30;81.40;;;;;;4137806;28;20049;-67
2022/03/30 11:45:53;;;;;;;0.00;0.00;;;13.30;81.50;;;;;;4151281;28;20483;-67
2022/03/30 11:48:15;;;;;;;0.00;0.00;;;13.40;81.80;;;;;;4134445;28;20066;-67
2022/03/30 11:50:48;;;;;;;0.00;0.00;;;13.40;81.60;;;;;;4121824;28;20038;-67
2022/03/30 11:53:26;;;;;;;0.00;0.00;;;13.40;82.00;;;;;;4134855;28;20047;-67
2022/03/30 11:55:54;;;;;;;0.00;0.00;;;13.50;82.40;;;;;;4134473;28;20066;-68
2022/03/30 11:58:34;;;;;;;0.00;0.00;;;13.60;82.60;;;;;;4147997;28;20064;-67
2022/03/30 12:01:06;;;;;;;0.00;0.00;;;13.70;82.50;;;;;;4134756;28;20077;-67
2022/03/30 12:03:30;;;;;;;0.00;0.00;;;13.80;81.90;;;;;;4134569;28;20432;-67
2022/03/30 12:06:00;;;;;;;0.00;0.00;;;13.70;81.50;;;;;;4134638;28;20042;-66
2022/03/30 12:08:29;;;;;;;0.00;0.00;;;13.60;81.30;;;;;;4134288;28;20061;-66
2022/03/30 12:10:56;;;;;;;0.00;0.00;;;13.50;81.80;;;;;;4121024;28;20046;-66
2022/03/30 12:13:27;;;;;;;0.00;0.00;;;13.50;82.20;;;;;;4134460;28;20052;-67
2022/03/30 12:16:15;;;;;;;0.00;0.00;;;13.40;82.30;;;;;;4121492;28;20170;-68
2022/03/30 12:18:45;;;;;;;0.00;0.00;;;13.20;82.30;;;;;;4145805;28;20075;-68
2022/03/30 12:21:07;;;;;;;0.00;0.00;;;13.20;83.00;;;;;;4121119;28;20097;-69
2022/03/30 12:23:29;;;;;;;0.00;0.00;;;13.30;82.90;;;;;;4134435;28;20058;-67
2022/03/30 12:25:53;;;;;;;0.00;0.00;;;13.40;81.60;;;;;;4120870;28;20066;-72
2022/03/30 12:28:31;;;;;;;0.00;0.00;;;13.50;81.60;;;;;;4134052;28;20042;-67
2022/03/30 12:30:58;;;;;;;0.00;0.00;;;13.50;80.80;;;;;;4134239;28;20042;-69
2022/03/30 12:33:20;;;;;;;0.00;0.00;;;13.50;80.20;;;;;;4120829;28;20050;-67
2022/03/30 12:35:42;;;;;;;0.00;0.00;;;13.40;80.10;;;;;;4134228;28;20513;-67
2022/03/30 12:38:14;;;;;;;0.00;0.00;;;13.40;80.10;;;;;;4133815;28;20593;-66
2022/03/30 12:40:39;;;;;;;0.00;0.00;;;13.40;80.80;;;;;;4120502;28;20039;-66
2022/03/30 12:43:02;;;;;;;0.00;0.00;;;13.50;79.90;;;;;;4134019;28;20397;-67
2022/03/30 12:45:24;;;;;;;0.00;0.00;;;13.50;80.10;;;;;;4134227;28;20061;-66
2022/03/30 12:47:59;;;;;;;0.00;0.00;;;13.50;79.60;;;;;;4107580;28;20128;-68
2022/03/30 12:50:32;;;;;;;0.00;0.00;;;13.70;79.80;;;;;;4149952;28;20054;-67
2022/03/30 12:53:01;;;;;;;0.00;0.00;;;13.80;79.60;;;;;;4123351;28;20085;-67